sensor_id;sensor_type;location;lat;lon;timestamp;pressure;altitude;pressure_sealevel;temperature;humidity
42007;BME280;27696;42.704;23.304;2022-11-12T00:00:50;96607.91;;;18.95;42.06
42007;BME280;27696;42.704;23.304;2022-11-12T00:03:15;96607.38;;;19.39;40.95
42007;BME280;27696;42.704;23.304;2022-11-12T00:05:41;96597.34;;;19.48;40.38
42007;BME280;27696;42.704;23.304;2022-11-12T00:08:07;96594.31;;;18.95;41.58
42007;BME280;27696;42.704;23.304;2022-11-12T00:10:33;96584.53;;;18.55;42.52
42007;BME280;27696;42.704;23.304;2022-11-12T00:12:59;96587.16;;;18.71;41.76
42007;BME280;27696;42.704;23.304;2022-11-12T00:15:24;96589.72;;;19.05;41.53
42007;BME280;27696;42.704;23.304;2022-11-12T00:17:50;96587.34;;;18.94;41.84
42007;BME280;27696;42.704;23.304;2022-11-12T00:20:16;96598.88;;;18.55;42.50
42007;BME280;27696;42.704;23.304;2022-11-12T00:22:41;96592.06;;;18.77;42.12
42007;BME280;27696;42.704;23.304;2022-11-12T00:25:07;96590.88;;;18.91;42.40
42007;BME280;27696;42.704;23.304;2022-11-12T00:27:33;96589.06;;;19.26;41.18
42007;BME280;27696;42.704;23.304;2022-11-12T00:29:58;96587.72;;;18.37;42.89
42007;BME280;27696;42.704;23.304;2022-11-12T00:32:24;96599.97;;;19.00;42.07
42007;BME280;27696;42.704;23.304;2022-11-12T00:34:50;96593.94;;;18.93;41.45
42007;BME280;27696;42.704;23.304;2022-11-12T00:37:15;96605.22;;;18.65;42.11
42007;BME280;27696;42.704;23.304;2022-11-12T00:39:42;96598.59;;;18.79;42.07
42007;BME280;27696;42.704;23.304;2022-11-12T00:42:08;96598.22;;;19.45;40.98
42007;BME280;27696;42.704;23.304;2022-11-12T00:44:33;96604.41;;;18.94;41.63
42007;BME280;27696;42.704;23.304;2022-11-12T00:46:59;96608.06;;;18.75;41.89
42007;BME280;27696;42.704;23.304;2022-11-12T00:49:25;96602.00;;;18.41;42.92
42007;BME280;27696;42.704;23.304;2022-11-12T00:51:50;96597.91;;;18.49;42.83
42007;BME280;27696;42.704;23.304;2022-11-12T00:54:16;96596.38;;;18.48;42.78
42007;BME280;27696;42.704;23.304;2022-11-12T00:56:42;96588.63;;;19.02;41.68
42007;BME280;27696;42.704;23.304;2022-11-12T00:59:10;96581.28;;;18.31;42.95
42007;BME280;27696;42.704;23.304;2022-11-12T01:01:35;96576.25;;;18.59;42.72
42007;BME280;27696;42.704;23.304;2022-11-12T01:04:01;96566.28;;;18.81;42.55
42007;BME280;27696;42.704;23.304;2022-11-12T01:06:27;96568.19;;;18.55;42.70
42007;BME280;27696;42.704;23.304;2022-11-12T01:08:53;96576.72;;;18.70;42.29
42007;BME280;27696;42.704;23.304;2022-11-12T01:11:23;96583.25;;;18.85;42.08
42007;BME280;27696;42.704;23.304;2022-11-12T01:13:57;96580.38;;;18.50;42.97
42007;BME280;27696;42.704;23.304;2022-11-12T01:16:24;96584.50;;;18.97;42.04
42007;BME280;27696;42.704;23.304;2022-11-12T01:18:53;96577.78;;;18.17;43.21
42007;BME280;27696;42.704;23.304;2022-11-12T01:21:19;96571.91;;;18.74;42.90
42007;BME280;27696;42.704;23.304;2022-11-12T01:23:45;96566.91;;;18.60;42.70
42007;BME280;27696;42.704;23.304;2022-11-12T01:26:13;96571.72;;;18.81;42.09
42007;BME280;27696;42.704;23.304;2022-11-12T01:28:39;96569.22;;;19.13;41.79
42007;BME280;27696;42.704;23.304;2022-11-12T01:31:09;96572.59;;;19.30;41.85
42007;BME280;27696;42.704;23.304;2022-11-12T01:33:35;96570.41;;;18.73;43.04
42007;BME280;27696;42.704;23.304;2022-11-12T01:36:01;96568.88;;;18.72;43.31
42007;BME280;27696;42.704;23.304;2022-11-12T01:38:26;96566.91;;;18.60;42.54
42007;BME280;27696;42.704;23.304;2022-11-12T01:40:52;96564.00;;;19.18;41.39
42007;BME280;27696;42.704;23.304;2022-11-12T01:43:18;96559.41;;;18.90;41.54
42007;BME280;27696;42.704;23.304;2022-11-12T01:45:44;96553.69;;;18.03;43.22
42007;BME280;27696;42.704;23.304;2022-11-12T01:50:48;96552.84;;;18.48;41.97
42007;BME280;27696;42.704;23.304;2022-11-12T01:53:14;96555.78;;;18.67;41.93
42007;BME280;27696;42.704;23.304;2022-11-12T01:55:40;96552.22;;;18.83;41.74
42007;BME280;27696;42.704;23.304;2022-11-12T01:58:09;96556.19;;;18.52;42.40
42007;BME280;27696;42.704;23.304;2022-11-12T02:00:36;96557.38;;;18.38;42.76
42007;BME280;27696;42.704;23.304;2022-11-12T02:03:02;96547.47;;;18.32;42.98
42007;BME280;27696;42.704;23.304;2022-11-12T02:05:32;96548.81;;;18.66;42.36
42007;BME280;27696;42.704;23.304;2022-11-12T02:07:57;96549.06;;;18.84;42.07
42007;BME280;27696;42.704;23.304;2022-11-12T02:10:24;96558.75;;;18.85;41.89
42007;BME280;27696;42.704;23.304;2022-11-12T02:12:50;96551.38;;;19.12;41.75
42007;BME280;27696;42.704;23.304;2022-11-12T02:15:35;96552.34;;;18.24;43.39
42007;BME280;27696;42.704;23.304;2022-11-12T02:18:01;96551.88;;;18.68;42.37
42007;BME280;27696;42.704;23.304;2022-11-12T02:20:31;96561.41;;;19.02;41.86
42007;BME280;27696;42.704;23.304;2022-11-12T02:22:57;96559.53;;;18.73;42.61
42007;BME280;27696;42.704;23.304;2022-11-12T02:25:22;96560.78;;;18.55;42.87
42007;BME280;27696;42.704;23.304;2022-11-12T02:27:50;96563.16;;;18.53;43.33
42007;BME280;27696;42.704;23.304;2022-11-12T02:30:17;96560.19;;;18.35;42.78
42007;BME280;27696;42.704;23.304;2022-11-12T02:32:43;96561.50;;;18.30;42.87
42007;BME280;27696;42.704;23.304;2022-11-12T02:35:09;96558.16;;;18.39;42.67
42007;BME280;27696;42.704;23.304;2022-11-12T02:37:35;96562.31;;;18.56;42.43
42007;BME280;27696;42.704;23.304;2022-11-12T02:40:01;96545.69;;;18.25;43.12
42007;BME280;27696;42.704;23.304;2022-11-12T02:42:26;96542.47;;;18.43;42.32
42007;BME280;27696;42.704;23.304;2022-11-12T02:44:52;96549.69;;;18.50;42.08
42007;BME280;27696;42.704;23.304;2022-11-12T02:47:18;96541.69;;;19.11;40.76
42007;BME280;27696;42.704;23.304;2022-11-12T02:49:43;96550.63;;;18.43;42.48
42007;BME280;27696;42.704;23.304;2022-11-12T02:52:10;96549.78;;;18.46;42.74
42007;BME280;27696;42.704;23.304;2022-11-12T02:54:35;96546.09;;;18.53;41.95
42007;BME280;27696;42.704;23.304;2022-11-12T02:57:01;96501.81;;;18.10;42.04
42007;BME280;27696;42.704;23.304;2022-11-12T02:59:26;96548.34;;;18.29;41.63
42007;BME280;27696;42.704;23.304;2022-11-12T03:01:52;96540.44;;;18.47;41.59
42007;BME280;27696;42.704;23.304;2022-11-12T03:04:18;96553.06;;;18.41;41.22
42007;BME280;27696;42.704;23.304;2022-11-12T03:06:43;96555.28;;;18.72;41.58
42007;BME280;27696;42.704;23.304;2022-11-12T03:09:10;96554.94;;;18.70;41.08
42007;BME280;27696;42.704;23.304;2022-11-12T03:11:35;96554.25;;;18.10;41.95
42007;BME280;27696;42.704;23.304;2022-11-12T03:14:01;96557.34;;;18.25;42.03
42007;BME280;27696;42.704;23.304;2022-11-12T03:16:27;96552.16;;;18.02;42.51
42007;BME280;27696;42.704;23.304;2022-11-12T03:18:53;96557.72;;;18.40;41.72
42007;BME280;27696;42.704;23.304;2022-11-12T03:21:18;96557.34;;;18.25;41.86
42007;BME280;27696;42.704;23.304;2022-11-12T03:23:44;96562.81;;;18.09;42.15
42007;BME280;27696;42.704;23.304;2022-11-12T03:26:10;96560.06;;;18.25;41.68
42007;BME280;27696;42.704;23.304;2022-11-12T03:28:35;96563.63;;;18.22;41.55
42007;BME280;27696;42.704;23.304;2022-11-12T03:31:01;96557.84;;;17.91;41.80
42007;BME280;27696;42.704;23.304;2022-11-12T03:33:27;96555.41;;;17.97;42.04
42007;BME280;27696;42.704;23.304;2022-11-12T03:35:52;96555.72;;;17.99;41.76
42007;BME280;27696;42.704;23.304;2022-11-12T03:38:18;96558.13;;;17.80;41.61
42007;BME280;27696;42.704;23.304;2022-11-12T03:40:43;96562.84;;;17.92;41.67
42007;BME280;27696;42.704;23.304;2022-11-12T03:43:09;96557.25;;;18.00;40.74
42007;BME280;27696;42.704;23.304;2022-11-12T03:45:35;96564.66;;;18.29;40.86
42007;BME280;27696;42.704;23.304;2022-11-12T03:48:00;96566.22;;;18.13;41.41
42007;BME280;27696;42.704;23.304;2022-11-12T03:50:27;96567.19;;;17.90;41.49
42007;BME280;27696;42.704;23.304;2022-11-12T03:52:54;96558.31;;;17.73;41.79
42007;BME280;27696;42.704;23.304;2022-11-12T03:55:20;96558.91;;;17.64;41.30
42007;BME280;27696;42.704;23.304;2022-11-12T03:57:47;96565.28;;;17.74;41.51
42007;BME280;27696;42.704;23.304;2022-11-12T04:00:13;96557.75;;;17.32;42.16
42007;BME280;27696;42.704;23.304;2022-11-12T04:02:39;96558.84;;;17.18;41.73
42007;BME280;27696;42.704;23.304;2022-11-12T04:05:04;96558.47;;;17.66;41.65
42007;BME280;27696;42.704;23.304;2022-11-12T04:07:55;96558.84;;;17.51;41.44
42007;BME280;27696;42.704;23.304;2022-11-12T04:10:39;96551.53;;;17.48;41.46
42007;BME280;27696;42.704;23.304;2022-11-12T04:13:05;96538.16;;;17.41;41.43
42007;BME280;27696;42.704;23.304;2022-11-12T04:15:49;96544.69;;;17.89;40.47
42007;BME280;27696;42.704;23.304;2022-11-12T04:18:34;96548.72;;;17.52;41.56
42007;BME280;27696;42.704;23.304;2022-11-12T04:21:18;96548.22;;;17.07;42.29
42007;BME280;27696;42.704;23.304;2022-11-12T04:24:02;96544.66;;;16.94;42.39
42007;BME280;27696;42.704;23.304;2022-11-12T04:26:28;96539.69;;;17.09;41.32
42007;BME280;27696;42.704;23.304;2022-11-12T04:28:54;96544.25;;;17.12;42.03
42007;BME280;27696;42.704;23.304;2022-11-12T04:31:37;96540.19;;;17.20;42.02
42007;BME280;27696;42.704;23.304;2022-11-12T04:34:03;96536.28;;;17.21;42.19
42007;BME280;27696;42.704;23.304;2022-11-12T04:36:47;96544.66;;;17.43;41.41
42007;BME280;27696;42.704;23.304;2022-11-12T04:39:12;96538.19;;;17.70;40.69
42007;BME280;27696;42.704;23.304;2022-11-12T04:41:38;96541.69;;;17.38;41.42
42007;BME280;27696;42.704;23.304;2022-11-12T04:44:22;96541.69;;;17.05;41.86
42007;BME280;27696;42.704;23.304;2022-11-12T04:47:06;96543.13;;;17.09;41.70
42007;BME280;27696;42.704;23.304;2022-11-12T04:49:31;96547.09;;;16.88;42.42
42007;BME280;27696;42.704;23.304;2022-11-12T04:51:57;96547.69;;;16.96;41.78
42007;BME280;27696;42.704;23.304;2022-11-12T04:54:32;96550.28;;;17.20;41.30
42007;BME280;27696;42.704;23.304;2022-11-12T04:56:57;96551.19;;;17.13;41.79
42007;BME280;27696;42.704;23.304;2022-11-12T04:59:23;96544.16;;;17.32;41.47
42007;BME280;27696;42.704;23.304;2022-11-12T05:01:49;96551.13;;;17.33;41.18
42007;BME280;27696;42.704;23.304;2022-11-12T05:04:14;96555.56;;;17.27;41.46
42007;BME280;27696;42.704;23.304;2022-11-12T05:06:40;96557.56;;;17.56;41.04
42007;BME280;27696;42.704;23.304;2022-11-12T05:09:19;96554.59;;;17.17;41.55
42007;BME280;27696;42.704;23.304;2022-11-12T05:11:45;96559.84;;;17.74;40.50
42007;BME280;27696;42.704;23.304;2022-11-12T05:14:11;96560.38;;;17.19;41.72
42007;BME280;27696;42.704;23.304;2022-11-12T05:16:36;96566.28;;;16.97;41.94
42007;BME280;27696;42.704;23.304;2022-11-12T05:19:02;96568.19;;;17.17;41.20
42007;BME280;27696;42.704;23.304;2022-11-12T05:21:28;96575.31;;;17.11;40.81
42007;BME280;27696;42.704;23.304;2022-11-12T05:24:12;96575.53;;;16.80;41.46
42007;BME280;27696;42.704;23.304;2022-11-12T05:26:37;96575.41;;;16.87;42.00
42007;BME280;27696;42.704;23.304;2022-11-12T05:29:03;96582.22;;;16.95;41.51
42007;BME280;27696;42.704;23.304;2022-11-12T05:31:29;96573.44;;;17.08;41.40
42007;BME280;27696;42.704;23.304;2022-11-12T05:33:55;96580.22;;;16.99;41.39
42007;BME280;27696;42.704;23.304;2022-11-12T05:36:20;96576.16;;;17.08;41.37
42007;BME280;27696;42.704;23.304;2022-11-12T05:38:46;96580.66;;;17.14;41.24
42007;BME280;27696;42.704;23.304;2022-11-12T05:41:11;96573.34;;;16.95;41.85
42007;BME280;27696;42.704;23.304;2022-11-12T05:43:37;96582.00;;;17.23;41.25
42007;BME280;27696;42.704;23.304;2022-11-12T05:46:03;96578.13;;;17.24;41.00
42007;BME280;27696;42.704;23.304;2022-11-12T05:48:28;96581.94;;;17.26;40.84
42007;BME280;27696;42.704;23.304;2022-11-12T05:50:54;96585.16;;;17.38;40.99
42007;BME280;27696;42.704;23.304;2022-11-12T05:53:20;96589.06;;;17.20;41.14
42007;BME280;27696;42.704;23.304;2022-11-12T05:55:45;96585.66;;;17.16;41.06
42007;BME280;27696;42.704;23.304;2022-11-12T05:58:11;96591.38;;;17.01;41.92
42007;BME280;27696;42.704;23.304;2022-11-12T06:00:37;96602.59;;;17.04;41.78
42007;BME280;27696;42.704;23.304;2022-11-12T06:03:06;96598.72;;;17.21;41.31
42007;BME280;27696;42.704;23.304;2022-11-12T06:05:32;96596.28;;;17.27;41.25
42007;BME280;27696;42.704;23.304;2022-11-12T06:07:57;96591.78;;;17.37;40.98
42007;BME280;27696;42.704;23.304;2022-11-12T06:10:23;96599.06;;;17.23;41.17
42007;BME280;27696;42.704;23.304;2022-11-12T06:12:49;96592.47;;;17.41;40.61
42007;BME280;27696;42.704;23.304;2022-11-12T06:15:15;96598.03;;;17.33;40.81
42007;BME280;27696;42.704;23.304;2022-11-12T06:17:40;96603.81;;;17.36;40.97
42007;BME280;27696;42.704;23.304;2022-11-12T06:20:06;96605.34;;;17.20;40.89
42007;BME280;27696;42.704;23.304;2022-11-12T06:22:32;96603.13;;;17.15;40.94
42007;BME280;27696;42.704;23.304;2022-11-12T06:24:58;96600.09;;;17.46;40.47
42007;BME280;27696;42.704;23.304;2022-11-12T06:27:23;96600.09;;;17.46;40.57
42007;BME280;27696;42.704;23.304;2022-11-12T06:29:49;96600.25;;;17.39;40.44
42007;BME280;27696;42.704;23.304;2022-11-12T06:32:15;96591.34;;;17.55;39.98
42007;BME280;27696;42.704;23.304;2022-11-12T06:34:40;96593.97;;;17.58;40.07
42007;BME280;27696;42.704;23.304;2022-11-12T06:37:06;96586.81;;;17.81;40.03
42007;BME280;27696;42.704;23.304;2022-11-12T06:39:32;96596.84;;;17.84;40.11
42007;BME280;27696;42.704;23.304;2022-11-12T06:41:58;96595.75;;;18.28;38.91
42007;BME280;27696;42.704;23.304;2022-11-12T06:44:23;96609.06;;;17.92;39.78
42007;BME280;27696;42.704;23.304;2022-11-12T06:46:49;96611.88;;;17.72;40.09
42007;BME280;27696;42.704;23.304;2022-11-12T06:49:15;96612.75;;;18.02;39.49
42007;BME280;27696;42.704;23.304;2022-11-12T06:51:40;96611.69;;;18.13;39.00
42007;BME280;27696;42.704;23.304;2022-11-12T06:54:06;96619.31;;;18.47;38.96
42007;BME280;27696;42.704;23.304;2022-11-12T06:56:31;96610.69;;;18.36;39.63
42007;BME280;27696;42.704;23.304;2022-11-12T06:58:57;96602.06;;;18.80;37.79
42007;BME280;27696;42.704;23.304;2022-11-12T07:01:23;96613.59;;;18.29;39.11
42007;BME280;27696;42.704;23.304;2022-11-12T07:03:52;96610.56;;;18.27;39.51
42007;BME280;27696;42.704;23.304;2022-11-12T07:06:17;96607.88;;;18.39;38.88
42007;BME280;27696;42.704;23.304;2022-11-12T07:08:47;96599.72;;;18.52;39.05
42007;BME280;27696;42.704;23.304;2022-11-12T07:11:14;96612.84;;;18.70;38.70
42007;BME280;27696;42.704;23.304;2022-11-12T07:13:39;96601.09;;;18.61;38.79
42007;BME280;27696;42.704;23.304;2022-11-12T07:16:06;96603.13;;;18.99;38.07
42007;BME280;27696;42.704;23.304;2022-11-12T07:18:32;96606.66;;;18.70;38.71
42007;BME280;27696;42.704;23.304;2022-11-12T07:20:59;96595.72;;;19.12;38.29
42007;BME280;27696;42.704;23.304;2022-11-12T07:23:25;96594.91;;;18.86;38.79
42007;BME280;27696;42.704;23.304;2022-11-12T07:25:57;96589.09;;;19.00;38.44
42007;BME280;27696;42.704;23.304;2022-11-12T07:28:23;96598.13;;;18.55;38.60
42007;BME280;27696;42.704;23.304;2022-11-12T07:30:55;96602.19;;;18.34;38.84
42007;BME280;27696;42.704;23.304;2022-11-12T07:33:22;96596.63;;;18.80;38.18
42007;BME280;27696;42.704;23.304;2022-11-12T07:35:47;96600.00;;;18.71;38.26
42007;BME280;27696;42.704;23.304;2022-11-12T07:38:13;96601.69;;;17.76;39.16
42007;BME280;27696;42.704;23.304;2022-11-12T07:40:38;96596.03;;;18.46;38.29
42007;BME280;27696;42.704;23.304;2022-11-12T07:43:04;96598.16;;;18.81;37.81
42007;BME280;27696;42.704;23.304;2022-11-12T07:45:29;96593.63;;;19.03;37.96
42007;BME280;27696;42.704;23.304;2022-11-12T07:47:57;96596.59;;;19.09;37.62
42007;BME280;27696;42.704;23.304;2022-11-12T07:50:23;96605.53;;;19.23;37.36
42007;BME280;27696;42.704;23.304;2022-11-12T07:52:48;96603.56;;;19.10;37.71
42007;BME280;27696;42.704;23.304;2022-11-12T07:55:14;96595.59;;;19.03;37.69
42007;BME280;27696;42.704;23.304;2022-11-12T07:57:39;96593.38;;;19.62;37.28
42007;BME280;27696;42.704;23.304;2022-11-12T08:00:05;96598.97;;;19.33;37.15
42007;BME280;27696;42.704;23.304;2022-11-12T08:02:31;96606.16;;;19.53;36.73
42007;BME280;27696;42.704;23.304;2022-11-12T08:04:57;96607.59;;;19.06;37.30
42007;BME280;27696;42.704;23.304;2022-11-12T08:07:23;96613.50;;;18.62;38.09
42007;BME280;27696;42.704;23.304;2022-11-12T08:21:48;96616.88;;;19.82;36.54
42007;BME280;27696;42.704;23.304;2022-11-12T08:24:13;96618.41;;;19.96;36.27
42007;BME280;27696;42.704;23.304;2022-11-12T08:26:39;96613.06;;;19.92;36.28
42007;BME280;27696;42.704;23.304;2022-11-12T08:29:04;96615.06;;;19.92;36.58
42007;BME280;27696;42.704;23.304;2022-11-12T08:31:30;96615.69;;;19.96;36.14
42007;BME280;27696;42.704;23.304;2022-11-12T08:33:55;96612.50;;;19.24;36.92
42007;BME280;27696;42.704;23.304;2022-11-12T08:36:20;96620.53;;;19.66;37.22
42007;BME280;27696;42.704;23.304;2022-11-12T08:38:46;96617.34;;;19.68;36.77
42007;BME280;27696;42.704;23.304;2022-11-12T08:41:13;96615.25;;;19.85;35.54
42007;BME280;27696;42.704;23.304;2022-11-12T08:43:39;96615.72;;;19.70;36.24
42007;BME280;27696;42.704;23.304;2022-11-12T08:46:05;96622.34;;;19.95;35.42
42007;BME280;27696;42.704;23.304;2022-11-12T08:48:30;96614.16;;;19.95;35.11
42007;BME280;27696;42.704;23.304;2022-11-12T08:50:57;96617.06;;;19.01;36.56
42007;BME280;27696;42.704;23.304;2022-11-12T08:53:24;96616.53;;;19.32;36.58
42007;BME280;27696;42.704;23.304;2022-11-12T08:55:54;96621.19;;;19.70;35.02
42007;BME280;27696;42.704;23.304;2022-11-12T08:58:20;96622.59;;;19.62;35.69
42007;BME280;27696;42.704;23.304;2022-11-12T09:00:46;96624.03;;;19.54;35.83
42007;BME280;27696;42.704;23.304;2022-11-12T09:03:13;96614.56;;;19.07;36.11
42007;BME280;27696;42.704;23.304;2022-11-12T09:05:38;96610.47;;;18.85;36.39
42007;BME280;27696;42.704;23.304;2022-11-12T09:08:05;96611.63;;;19.27;35.69
42007;BME280;27696;42.704;23.304;2022-11-12T09:10:32;96612.06;;;19.12;35.81
42007;BME280;27696;42.704;23.304;2022-11-12T09:13:00;96609.75;;;18.98;36.07
42007;BME280;27696;42.704;23.304;2022-11-12T09:15:26;96612.44;;;18.72;36.58
42007;BME280;27696;42.704;23.304;2022-11-12T09:17:55;96599.84;;;18.49;36.75
42007;BME280;27696;42.704;23.304;2022-11-12T09:20:22;96606.22;;;18.42;36.84
42007;BME280;27696;42.704;23.304;2022-11-12T09:22:47;96611.34;;;19.60;35.28
42007;BME280;27696;42.704;23.304;2022-11-12T09:25:14;96612.47;;;19.49;35.96
42007;BME280;27696;42.704;23.304;2022-11-12T09:27:40;96610.53;;;19.11;35.90
42007;BME280;27696;42.704;23.304;2022-11-12T09:30:07;96601.91;;;19.39;35.88
42007;BME280;27696;42.704;23.304;2022-11-12T09:32:36;96608.47;;;19.15;36.45
42007;BME280;27696;42.704;23.304;2022-11-12T09:35:02;96611.13;;;18.90;36.40
42007;BME280;27696;42.704;23.304;2022-11-12T09:37:29;96607.72;;;18.60;36.48
42007;BME280;27696;42.704;23.304;2022-11-12T09:39:55;96608.63;;;18.82;36.39
42007;BME280;27696;42.704;23.304;2022-11-12T09:42:22;96612.22;;;18.37;36.95
42007;BME280;27696;42.704;23.304;2022-11-12T09:44:59;96607.91;;;19.46;35.78
42007;BME280;27696;42.704;23.304;2022-11-12T09:47:30;96612.81;;;19.39;35.50
42007;BME280;27696;42.704;23.304;2022-11-12T09:52:27;96603.94;;;18.83;37.26
42007;BME280;27696;42.704;23.304;2022-11-12T09:55:29;96618.50;;;18.34;37.06
42007;BME280;27696;42.704;23.304;2022-11-12T09:57:49;96615.03;;;18.76;39.09
42007;BME280;27696;42.704;23.304;2022-11-12T10:00:18;96618.25;;;19.64;37.50
42007;BME280;27696;42.704;23.304;2022-11-12T10:02:52;96616.06;;;20.07;36.48
42007;BME280;27696;42.704;23.304;2022-11-12T10:13:50;96620.97;;;19.52;36.00
42007;BME280;27696;42.704;23.304;2022-11-12T10:19:15;96617.53;;;18.83;36.53
42007;BME280;27696;42.704;23.304;2022-11-12T10:22:05;96613.56;;;19.39;36.28
42007;BME280;27696;42.704;23.304;2022-11-12T10:24:36;96616.03;;;19.85;35.46
42007;BME280;27696;42.704;23.304;2022-11-12T10:27:14;96618.72;;;18.27;37.96
42007;BME280;27696;42.704;23.304;2022-11-12T10:32:12;96612.50;;;18.26;37.83
42007;BME280;27696;42.704;23.304;2022-11-12T10:34:39;96618.25;;;19.00;36.99
42007;BME280;27696;42.704;23.304;2022-11-12T10:37:09;96621.78;;;18.12;38.58
42007;BME280;27696;42.704;23.304;2022-11-12T10:39:37;96615.00;;;18.63;37.74
42007;BME280;27696;42.704;23.304;2022-11-12T10:42:04;96611.31;;;17.98;39.06
42007;BME280;27696;42.704;23.304;2022-11-12T10:44:33;96607.63;;;18.34;38.68
42007;BME280;27696;42.704;23.304;2022-11-12T10:49:43;96621.91;;;18.38;39.12
42007;BME280;27696;42.704;23.304;2022-11-12T10:52:19;96606.19;;;18.59;38.39
42007;BME280;27696;42.704;23.304;2022-11-12T10:54:45;96616.13;;;18.78;38.43
42007;BME280;27696;42.704;23.304;2022-11-12T10:57:24;96610.81;;;18.87;38.39
42007;BME280;27696;42.704;23.304;2022-11-12T11:00:06;96609.88;;;18.65;38.88
42007;BME280;27696;42.704;23.304;2022-11-12T11:02:35;96610.00;;;18.74;38.77
42007;BME280;27696;42.704;23.304;2022-11-12T11:05:49;96613.03;;;18.50;38.54
42007;BME280;27696;42.704;23.304;2022-11-12T11:07:50;96608.09;;;18.45;38.50
42007;BME280;27696;42.704;23.304;2022-11-12T11:10:26;96606.19;;;18.29;38.90
42007;BME280;27696;42.704;23.304;2022-11-12T11:15:37;96608.19;;;18.12;38.79
42007;BME280;27696;42.704;23.304;2022-11-12T11:18:03;96606.81;;;18.63;38.13
42007;BME280;27696;42.704;23.304;2022-11-12T11:20:38;96610.25;;;18.37;38.44
42007;BME280;27696;42.704;23.304;2022-11-12T11:25:56;96605.78;;;18.01;38.61
42007;BME280;27696;42.704;23.304;2022-11-12T11:28:37;96598.63;;;17.74;39.52
42007;BME280;27696;42.704;23.304;2022-11-12T11:31:07;96595.13;;;18.92;37.74
42007;BME280;27696;42.704;23.304;2022-11-12T11:42:06;96609.72;;;18.43;38.58
42007;BME280;27696;42.704;23.304;2022-11-12T11:44:57;96611.53;;;18.75;38.30
42007;BME280;27696;42.704;23.304;2022-11-12T11:47:44;96612.22;;;18.79;38.33
42007;BME280;27696;42.704;23.304;2022-11-12T11:58:41;96610.72;;;17.57;40.63
42007;BME280;27696;42.704;23.304;2022-11-12T12:01:22;96605.22;;;18.23;39.58
42007;BME280;27696;42.704;23.304;2022-11-12T12:06:21;96613.66;;;18.41;39.36
42007;BME280;27696;42.704;23.304;2022-11-12T12:08:53;96602.75;;;18.41;39.05
42007;BME280;27696;42.704;23.304;2022-11-12T12:11:44;96606.66;;;18.11;39.69
42007;BME280;27696;42.704;23.304;2022-11-12T12:17:17;96601.09;;;18.02;39.64
42007;BME280;27696;42.704;23.304;2022-11-12T12:19:58;96596.63;;;18.24;39.13
42007;BME280;27696;42.704;23.304;2022-11-12T12:25:30;96585.94;;;18.17;38.90
42007;BME280;27696;42.704;23.304;2022-11-12T12:28:00;96584.00;;;18.31;38.85
42007;BME280;27696;42.704;23.304;2022-11-12T12:30:28;96590.88;;;18.91;38.16
42007;BME280;27696;42.704;23.304;2022-11-12T12:35:53;96588.25;;;18.74;38.12
42007;BME280;27696;42.704;23.304;2022-11-12T12:38:23;96595.94;;;18.20;39.06
42007;BME280;27696;42.704;23.304;2022-11-12T12:40:51;96590.06;;;18.94;37.73
42007;BME280;27696;42.704;23.304;2022-11-12T12:43:42;96589.47;;;18.73;38.22
42007;BME280;27696;42.704;23.304;2022-11-12T12:46:06;96586.56;;;19.06;37.52
42007;BME280;27696;42.704;23.304;2022-11-12T12:48:36;96591.38;;;18.17;38.96
42007;BME280;27696;42.704;23.304;2022-11-12T12:51:03;96584.56;;;18.81;37.84
42007;BME280;27696;42.704;23.304;2022-11-12T12:55:55;96587.31;;;19.20;37.42
42007;BME280;27696;42.704;23.304;2022-11-12T12:58:32;96585.91;;;19.41;37.56
42007;BME280;27696;42.704;23.304;2022-11-12T13:01:02;96599.56;;;18.01;39.67
42007;BME280;27696;42.704;23.304;2022-11-12T13:08:58;96599.72;;;18.52;41.06
42007;BME280;27696;42.704;23.304;2022-11-12T13:19:32;96599.53;;;18.17;42.18
42007;BME280;27696;42.704;23.304;2022-11-12T13:32:41;96616.22;;;17.53;43.49
42007;BME280;27696;42.704;23.304;2022-11-12T13:35:24;96615.53;;;17.99;42.78
42007;BME280;27696;42.704;23.304;2022-11-12T13:40:36;96618.94;;;17.70;43.79
42007;BME280;27696;42.704;23.304;2022-11-12T13:43:12;96617.06;;;17.50;44.26
42007;BME280;27696;42.704;23.304;2022-11-12T13:45:41;96612.91;;;18.41;43.03
42007;BME280;27696;42.704;23.304;2022-11-12T13:48:14;96612.88;;;17.95;43.82
42007;BME280;27696;42.704;23.304;2022-11-12T13:50:41;96603.13;;;18.56;42.68
42007;BME280;27696;42.704;23.304;2022-11-12T13:53:13;96604.94;;;18.47;42.88
42007;BME280;27696;42.704;23.304;2022-11-12T13:55:49;96604.09;;;18.63;42.14
42007;BME280;27696;42.704;23.304;2022-11-12T13:58:17;96599.28;;;18.41;42.88
42007;BME280;27696;42.704;23.304;2022-11-12T14:00:50;96607.75;;;18.85;41.43
42007;BME280;27696;42.704;23.304;2022-11-12T14:03:17;96601.78;;;18.06;43.72
42007;BME280;27696;42.704;23.304;2022-11-12T14:05:45;96604.91;;;18.04;43.73
42007;BME280;27696;42.704;23.304;2022-11-12T14:18:55;96602.16;;;18.21;42.85
42007;BME280;27696;42.704;23.304;2022-11-12T14:21:27;96597.47;;;18.21;42.47
42007;BME280;27696;42.704;23.304;2022-11-12T14:23:53;96601.25;;;18.53;42.30
42007;BME280;27696;42.704;23.304;2022-11-12T14:29:03;96599.34;;;18.80;41.63
42007;BME280;27696;42.704;23.304;2022-11-12T14:31:29;96606.16;;;18.46;42.48
42007;BME280;27696;42.704;23.304;2022-11-12T14:33:54;96611.41;;;18.66;42.12
42007;BME280;27696;42.704;23.304;2022-11-12T14:36:20;96608.50;;;18.73;41.97
42007;BME280;27696;42.704;23.304;2022-11-12T14:38:48;96609.16;;;18.77;42.12
42007;BME280;27696;42.704;23.304;2022-11-12T14:43:44;96607.75;;;18.85;41.40
42007;BME280;27696;42.704;23.304;2022-11-12T14:46:24;96610.47;;;18.43;41.64
42007;BME280;27696;42.704;23.304;2022-11-12T14:51:19;96599.91;;;18.87;41.23